Time;durP1;ratioP1;P1;durP2;ratioP2;P2;SDS_P1;SDS_P2;PMS_P1;PMS_P2;Temp;Humidity;BMP_temperature;BMP_pressure;BME280_temperature;BME280_humidity;BME280_pressure;Samples;Min_cycle;Max_cycle;Signal;HPM_P1;HPM_P2
2021/10/19 00:02:03;;;;;;;15.52;7.45;;;;;;;;;;5032462;28;20066;-53
2021/10/19 00:04:29;;;;;;;16.55;7.15;;;;;;;;;;5031472;28;20076;-53
2021/10/19 00:06:55;;;;;;;16.50;7.07;;;;;;;;;;5032888;28;20033;-53
2021/10/19 00:09:21;;;;;;;16.90;7.22;;;;;;;;;;5032070;28;20028;-53
2021/10/19 00:11:47;;;;;;;18.02;7.60;;;;;;;;;;5032974;28;20028;-53
2021/10/19 00:14:13;;;;;;;23.58;8.85;;;;;;;;;;5031618;28;20025;-53
2021/10/19 00:16:39;;;;;;;19.92;8.68;;;;;;;;;;5033756;28;20029;-53
2021/10/19 00:19:05;;;;;;;13.32;7.45;;;;;;;;;;5035952;28;20017;-53
2021/10/19 00:21:32;;;;;;;13.85;5.97;;;;;;;;;;5035970;28;20033;-53
2021/10/19 00:23:58;;;;;;;14.68;6.72;;;;;;;;;;5035497;28;20468;-53
2021/10/19 00:26:25;;;;;;;13.70;6.50;;;;;;;;;;5036118;28;20551;-53
2021/10/19 00:28:51;;;;;;;11.23;6.15;;;;;;;;;;5036283;28;20068;-53
2021/10/19 00:31:17;;;;;;;21.45;6.80;;;;;;;;;;5035821;28;20569;-54
2021/10/19 00:33:43;;;;;;;16.90;7.20;;;;;;;;;;5033709;28;20025;-53
2021/10/19 00:36:09;;;;;;;13.75;7.10;;;;;;;;;;5036423;28;20040;-53
2021/10/19 00:38:35;;;;;;;14.55;6.47;;;;;;;;;;5035941;28;20021;-53
2021/10/19 00:41:01;;;;;;;14.70;6.88;;;;;;;;;;5035779;28;20115;-53
2021/10/19 00:43:27;;;;;;;14.60;7.15;;;;;;;;;;5035375;28;20033;-52
2021/10/19 00:45:53;;;;;;;16.92;7.50;;;;;;;;;;5035610;28;20026;-53
2021/10/19 00:48:21;;;;;;;17.17;7.53;;;;;;;;;;5035418;28;20025;-52
2021/10/19 00:50:47;;;;;;;13.75;6.97;;;;;;;;;;5035612;28;20025;-53
2021/10/19 00:53:14;;;;;;;17.95;6.93;;;;;;;;;;5035822;28;20056;-52
2021/10/19 00:55:40;;;;;;;14.15;6.75;;;;;;;;;;5034884;28;20409;-52
2021/10/19 00:58:07;;;;;;;14.80;7.40;;;;;;;;;;5035615;28;20413;-52
2021/10/19 01:00:33;;;;;;;19.08;7.80;;;;;;;;;;5035509;28;20022;-53
2021/10/19 01:02:59;;;;;;;17.95;8.05;;;;;;;;;;5035303;28;20448;-52
2021/10/19 01:05:25;;;;;;;17.45;7.93;;;;;;;;;;5034870;28;20022;-53
2021/10/19 01:07:51;;;;;;;20.55;8.60;;;;;;;;;;5035333;28;20025;-53
2021/10/19 01:10:18;;;;;;;18.77;7.13;;;;;;;;;;5035429;28;20022;-53
2021/10/19 01:12:44;;;;;;;21.35;8.48;;;;;;;;;;5035297;28;20017;-53
2021/10/19 01:15:11;;;;;;;13.32;7.25;;;;;;;;;;5034597;28;20363;-53
2021/10/19 01:17:44;;;;;;;18.42;7.72;;;;;;;;;;5035101;28;20028;-53
2021/10/19 01:20:36;;;;;;;19.20;8.05;;;;;;;;;;5035139;28;20025;-53
2021/10/19 01:23:03;;;;;;;16.98;7.18;;;;;;;;;;5033882;28;20460;-52
2021/10/19 01:25:31;;;;;;;16.20;7.72;;;;;;;;;;5034195;28;20502;-53
2021/10/19 01:28:07;;;;;;;17.75;7.13;;;;;;;;;;5034223;28;20474;-52
2021/10/19 01:30:39;;;;;;;15.95;7.85;;;;;;;;;;5035025;28;20047;-53
2021/10/19 01:33:05;;;;;;;18.42;7.35;;;;;;;;;;5034927;28;20103;-53
2021/10/19 01:35:35;;;;;;;19.52;8.30;;;;;;;;;;5034624;28;20419;-53
2021/10/19 01:38:01;;;;;;;16.42;6.70;;;;;;;;;;5034835;28;20398;-52
2021/10/19 01:40:28;;;;;;;16.65;7.63;;;;;;;;;;5034975;28;20107;-52
2021/10/19 01:42:54;;;;;;;13.57;5.93;;;;;;;;;;5034397;28;20156;-53
2021/10/19 01:45:20;;;;;;;12.70;6.72;;;;;;;;;;5034179;28;20025;-53
2021/10/19 01:47:46;;;;;;;15.23;6.93;;;;;;;;;;5034559;28;20040;-53
2021/10/19 01:50:13;;;;;;;13.43;6.22;;;;;;;;;;5034375;28;20044;-53
2021/10/19 01:52:39;;;;;;;16.20;6.40;;;;;;;;;;5034610;28;20021;-53
2021/10/19 01:55:07;;;;;;;15.90;8.10;;;;;;;;;;5033426;28;20482;-53
2021/10/19 01:57:33;;;;;;;15.55;5.65;;;;;;;;;;5034617;28;20026;-53
2021/10/19 01:59:59;;;;;;;13.60;6.53;;;;;;;;;;5034381;28;20348;-53
2021/10/19 02:02:25;;;;;;;17.27;7.28;;;;;;;;;;5034034;28;20038;-53
2021/10/19 02:04:51;;;;;;;14.45;6.65;;;;;;;;;;5033477;28;20025;-53
2021/10/19 02:07:17;;;;;;;16.85;6.85;;;;;;;;;;5034253;28;20083;-52
2021/10/19 02:09:43;;;;;;;12.00;6.95;;;;;;;;;;5034168;28;20383;-52
2021/10/19 02:12:09;;;;;;;12.48;6.50;;;;;;;;;;5034177;28;20041;-53
2021/10/19 02:14:35;;;;;;;15.07;6.82;;;;;;;;;;5033459;28;20025;-53
2021/10/19 02:17:01;;;;;;;14.85;7.13;;;;;;;;;;5034317;28;20044;-53
2021/10/19 02:19:28;;;;;;;14.35;6.57;;;;;;;;;;5034241;28;20030;-53
2021/10/19 02:21:54;;;;;;;15.05;7.00;;;;;;;;;;5033538;28;20091;-53
2021/10/19 02:24:21;;;;;;;10.75;5.22;;;;;;;;;;5033347;28;20021;-53
2021/10/19 02:26:47;;;;;;;10.98;6.03;;;;;;;;;;5034117;28;20021;-53
2021/10/19 02:29:14;;;;;;;16.05;6.35;;;;;;;;;;5033931;28;20033;-53
2021/10/19 02:31:40;;;;;;;13.50;6.68;;;;;;;;;;5033482;28;20041;-53
2021/10/19 02:34:06;;;;;;;12.23;5.38;;;;;;;;;;5033203;28;20044;-53
2021/10/19 02:36:33;;;;;;;13.77;6.25;;;;;;;;;;5033574;28;20354;-53
2021/10/19 02:39:02;;;;;;;16.05;5.97;;;;;;;;;;5032772;28;20033;-53
2021/10/19 02:41:28;;;;;;;15.02;6.88;;;;;;;;;;5033927;28;20111;-53
2021/10/19 02:43:54;;;;;;;12.68;6.60;;;;;;;;;;5033023;28;20034;-53
2021/10/19 02:46:21;;;;;;;13.30;5.80;;;;;;;;;;5033174;28;20025;-53
2021/10/19 02:48:48;;;;;;;15.48;6.57;;;;;;;;;;5033449;28;20083;-53
2021/10/19 02:51:14;;;;;;;8.82;5.15;;;;;;;;;;5032788;28;20439;-53
2021/10/19 02:53:40;;;;;;;11.30;5.70;;;;;;;;;;5032975;28;20163;-53
2021/10/19 02:56:07;;;;;;;14.48;5.90;;;;;;;;;;5028207;28;20033;-53
2021/10/19 02:58:33;;;;;;;10.45;5.20;;;;;;;;;;5052654;28;20035;-53
2021/10/19 03:00:59;;;;;;;8.52;5.03;;;;;;;;;;5053539;28;20021;-53
2021/10/19 03:03:24;;;;;;;11.07;4.97;;;;;;;;;;5052967;28;20029;-53
2021/10/19 03:05:50;;;;;;;11.02;5.53;;;;;;;;;;5052969;28;20108;-53
2021/10/19 03:08:16;;;;;;;10.50;5.47;;;;;;;;;;5052986;28;20490;-53
2021/10/19 03:10:42;;;;;;;12.45;5.35;;;;;;;;;;5052726;28;20021;-53
2021/10/19 03:13:08;;;;;;;8.75;5.03;;;;;;;;;;5052672;28;20032;-53
2021/10/19 03:15:34;;;;;;;7.88;4.57;;;;;;;;;;5052175;28;20092;-53
2021/10/19 03:18:00;;;;;;;12.95;6.13;;;;;;;;;;5052976;28;20140;-53
2021/10/19 03:20:26;;;;;;;10.40;4.78;;;;;;;;;;5052703;28;20009;-53
2021/10/19 03:22:52;;;;;;;8.82;4.30;;;;;;;;;;5052420;28;20507;-53
2021/10/19 03:25:18;;;;;;;11.30;4.85;;;;;;;;;;5051772;28;20029;-53
2021/10/19 03:27:44;;;;;;;9.95;5.00;;;;;;;;;;5053044;28;20401;-53
2021/10/19 03:30:10;;;;;;;15.27;5.68;;;;;;;;;;5052484;28;20037;-53
2021/10/19 03:32:36;;;;;;;11.93;5.35;;;;;;;;;;5052569;28;20018;-53
2021/10/19 03:35:03;;;;;;;13.15;4.72;;;;;;;;;;5051979;28;20081;-53
2021/10/19 03:37:29;;;;;;;13.52;5.63;;;;;;;;;;5052844;28;20029;-53
2021/10/19 03:39:55;;;;;;;10.77;5.30;;;;;;;;;;5052362;28;20084;-53
2021/10/19 03:42:21;;;;;;;12.00;4.38;;;;;;;;;;5052891;28;20332;-53
2021/10/19 03:44:47;;;;;;;13.57;5.13;;;;;;;;;;5051900;28;20029;-53
2021/10/19 03:47:13;;;;;;;11.77;6.13;;;;;;;;;;5052617;28;20049;-53
2021/10/19 03:49:39;;;;;;;13.93;6.15;;;;;;;;;;5053527;28;20029;-53
2021/10/19 03:52:05;;;;;;;14.32;6.07;;;;;;;;;;5056412;28;20328;-53
2021/10/19 03:54:31;;;;;;;13.07;4.97;;;;;;;;;;5055477;28;20029;-53
2021/10/19 03:56:57;;;;;;;14.38;6.20;;;;;;;;;;5056484;28;20387;-53
2021/10/19 03:59:23;;;;;;;15.80;5.53;;;;;;;;;;5056551;28;20159;-53
2021/10/19 04:01:49;;;;;;;9.82;5.10;;;;;;;;;;5056602;28;20041;-53
2021/10/19 04:04:15;;;;;;;11.55;5.97;;;;;;;;;;5055457;28;20347;-53
2021/10/19 04:06:41;;;;;;;13.43;5.68;;;;;;;;;;5056349;28;20441;-53
2021/10/19 04:09:07;;;;;;;10.48;5.38;;;;;;;;;;5055817;28;20494;-53
2021/10/19 04:11:33;;;;;;;11.57;5.63;;;;;;;;;;5056638;28;20061;-53
2021/10/19 04:13:59;;;;;;;11.40;5.90;;;;;;;;;;5055725;28;20016;-53
2021/10/19 04:16:25;;;;;;;12.70;5.80;;;;;;;;;;5056327;28;20021;-53
2021/10/19 04:18:51;;;;;;;16.92;6.28;;;;;;;;;;5056031;28;20025;-54
2021/10/19 04:21:17;;;;;;;11.18;5.80;;;;;;;;;;5056180;28;20108;-53
2021/10/19 04:23:43;;;;;;;12.77;5.50;;;;;;;;;;5054952;28;20112;-53
2021/10/19 04:26:09;;;;;;;13.85;5.82;;;;;;;;;;5055402;28;20108;-53
2021/10/19 04:28:35;;;;;;;12.23;5.45;;;;;;;;;;5056123;28;20029;-53
2021/10/19 04:31:01;;;;;;;8.15;5.10;;;;;;;;;;5055798;28;20033;-53
2021/10/19 04:33:27;;;;;;;10.82;5.93;;;;;;;;;;5055551;28;20061;-53
2021/10/19 04:35:53;;;;;;;10.63;5.63;;;;;;;;;;5053609;28;20056;-53
2021/10/19 04:38:19;;;;;;;9.45;4.25;;;;;;;;;;5056260;28;20401;-53
2021/10/19 04:40:45;;;;;;;12.23;5.25;;;;;;;;;;5055819;28;20032;-53
2021/10/19 04:43:11;;;;;;;9.02;5.25;;;;;;;;;;5055472;28;20021;-53
2021/10/19 04:45:37;;;;;;;10.55;5.75;;;;;;;;;;5055152;28;20021;-52
2021/10/19 04:48:03;;;;;;;11.88;5.70;;;;;;;;;;5055490;28;20485;-53
2021/10/19 04:50:30;;;;;;;12.40;6.30;;;;;;;;;;5056096;28;20044;-53
2021/10/19 04:52:56;;;;;;;10.60;5.07;;;;;;;;;;5055345;28;20029;-52
2021/10/19 04:55:22;;;;;;;18.05;5.65;;;;;;;;;;5055030;28;20039;-52
2021/10/19 04:57:48;;;;;;;11.85;6.07;;;;;;;;;;5055581;28;20025;-53
2021/10/19 05:00:15;;;;;;;15.07;5.97;;;;;;;;;;5055426;28;20037;-53
2021/10/19 05:02:48;;;;;;;10.07;5.47;;;;;;;;;;5054285;28;20041;-53
2021/10/19 05:05:15;;;;;;;12.93;6.07;;;;;;;;;;5054923;28;20020;-53
2021/10/19 05:07:41;;;;;;;12.48;5.45;;;;;;;;;;5055060;28;20060;-53
2021/10/19 05:10:07;;;;;;;13.88;5.90;;;;;;;;;;5055230;28;20028;-53
2021/10/19 05:12:33;;;;;;;13.35;6.53;;;;;;;;;;5055311;28;20052;-53
2021/10/19 05:14:59;;;;;;;17.77;6.55;;;;;;;;;;5054370;28;20481;-53
2021/10/19 05:17:25;;;;;;;15.00;6.22;;;;;;;;;;5055028;28;20057;-53
2021/10/19 05:19:51;;;;;;;12.25;5.75;;;;;;;;;;5054999;28;20027;-53
2021/10/19 05:22:17;;;;;;;11.82;6.15;;;;;;;;;;5055049;28;20041;-53
2021/10/19 05:24:43;;;;;;;14.13;6.63;;;;;;;;;;5054421;28;20017;-52
2021/10/19 05:27:09;;;;;;;17.40;7.22;;;;;;;;;;5054978;28;20032;-52
2021/10/19 05:29:35;;;;;;;15.85;7.70;;;;;;;;;;5054656;28;20028;-50
2021/10/19 05:32:04;;;;;;;15.85;7.47;;;;;;;;;;5054519;28;20063;-50
2021/10/19 05:34:30;;;;;;;12.23;5.68;;;;;;;;;;5054286;28;20079;-51
2021/10/19 05:36:56;;;;;;;17.25;6.65;;;;;;;;;;5054794;28;20401;-51
2021/10/19 05:39:22;;;;;;;17.95;7.03;;;;;;;;;;5053018;28;20017;-51
2021/10/19 05:41:48;;;;;;;13.95;6.85;;;;;;;;;;5054699;28;20033;-51
2021/10/19 05:44:14;;;;;;;13.13;7.10;;;;;;;;;;5053627;28;20347;-51
2021/10/19 05:46:40;;;;;;;15.20;6.45;;;;;;;;;;5054700;28;20025;-51
2021/10/19 05:49:06;;;;;;;11.30;6.28;;;;;;;;;;5054116;28;20032;-51
2021/10/19 05:51:32;;;;;;;16.98;7.22;;;;;;;;;;5054771;28;20024;-51
2021/10/19 05:53:58;;;;;;;18.60;8.95;;;;;;;;;;5053823;28;20100;-51
2021/10/19 05:56:24;;;;;;;15.75;7.00;;;;;;;;;;5054637;28;20029;-51
2021/10/19 05:58:50;;;;;;;17.77;7.10;;;;;;;;;;5054469;28;20031;-51
2021/10/19 06:01:16;;;;;;;12.95;6.43;;;;;;;;;;5054614;28;20287;-51
2021/10/19 06:03:42;;;;;;;17.98;8.65;;;;;;;;;;5053100;28;20024;-51
2021/10/19 06:06:13;;;;;;;17.88;7.85;;;;;;;;;;5054622;28;20024;-51
2021/10/19 06:08:39;;;;;;;14.50;7.15;;;;;;;;;;5054072;28;20107;-51
2021/10/19 06:11:05;;;;;;;16.35;6.93;;;;;;;;;;5054319;28;20044;-51
2021/10/19 06:13:32;;;;;;;16.95;6.65;;;;;;;;;;5052693;28;20111;-51
2021/10/19 06:15:58;;;;;;;15.77;7.63;;;;;;;;;;5053753;28;20020;-51
2021/10/19 06:18:24;;;;;;;22.60;9.63;;;;;;;;;;5053372;28;20036;-51
2021/10/19 06:20:51;;;;;;;23.17;9.07;;;;;;;;;;5053611;28;20025;-51
2021/10/19 06:23:18;;;;;;;21.95;9.20;;;;;;;;;;5054306;28;20129;-51
2021/10/19 06:25:44;;;;;;;25.00;10.25;;;;;;;;;;5052902;28;20025;-51
2021/10/19 06:28:10;;;;;;;23.92;8.65;;;;;;;;;;5054024;28;20308;-51
2021/10/19 06:30:36;;;;;;;18.63;9.25;;;;;;;;;;5053525;28;20036;-51
2021/10/19 06:33:02;;;;;;;23.90;9.52;;;;;;;;;;5053571;28;20450;-51
2021/10/19 06:35:28;;;;;;;23.67;9.50;;;;;;;;;;5053138;28;20029;-51
2021/10/19 06:37:55;;;;;;;20.95;8.43;;;;;;;;;;5053944;28;20388;-52
2021/10/19 06:40:21;;;;;;;23.98;9.63;;;;;;;;;;5051642;28;20113;-51
2021/10/19 06:42:47;;;;;;;23.50;9.45;;;;;;;;;;5053320;28;20045;-51
2021/10/19 06:45:13;;;;;;;17.90;8.07;;;;;;;;;;5053062;28;20021;-52
2021/10/19 06:47:39;;;;;;;17.33;9.07;;;;;;;;;;5053377;28;20021;-51
2021/10/19 06:50:07;;;;;;;13.05;7.85;;;;;;;;;;5053376;28;20024;-51
2021/10/19 06:52:33;;;;;;;18.40;8.10;;;;;;;;;;5053617;28;20017;-51
2021/10/19 06:55:00;;;;;;;25.27;9.88;;;;;;;;;;5053058;28;20059;-52
2021/10/19 06:57:27;;;;;;;14.75;7.95;;;;;;;;;;5052980;28;20021;-52
2021/10/19 06:59:53;;;;;;;14.30;6.85;;;;;;;;;;5053218;28;20040;-51
2021/10/19 07:02:19;;;;;;;17.80;7.90;;;;;;;;;;5053515;28;20112;-51
2021/10/19 07:04:45;;;;;;;24.92;8.45;;;;;;;;;;5052141;28;20112;-51
2021/10/19 07:07:11;;;;;;;18.63;8.05;;;;;;;;;;5053114;28;20036;-52
2021/10/19 07:09:37;;;;;;;25.95;8.48;;;;;;;;;;5052730;28;20108;-51
2021/10/19 07:12:03;;;;;;;18.77;8.63;;;;;;;;;;5052847;28;20102;-51
2021/10/19 07:14:30;;;;;;;22.42;8.90;;;;;;;;;;5050979;28;20455;-52
2021/10/19 07:16:57;;;;;;;18.17;8.23;;;;;;;;;;5053110;28;20021;-51
2021/10/19 07:19:23;;;;;;;21.20;8.95;;;;;;;;;;5052694;28;20028;-51
2021/10/19 07:21:49;;;;;;;21.40;9.30;;;;;;;;;;5052911;28;20029;-51
2021/10/19 07:24:16;;;;;;;21.55;8.48;;;;;;;;;;5051621;28;20348;-51
2021/10/19 07:26:42;;;;;;;21.00;8.20;;;;;;;;;;5052512;28;20032;-51
2021/10/19 07:29:09;;;;;;;21.05;8.82;;;;;;;;;;5053176;28;20021;-51
2021/10/19 07:31:35;;;;;;;19.98;8.20;;;;;;;;;;5052626;28;20364;-52
2021/10/19 07:34:03;;;;;;;20.20;9.75;;;;;;;;;;5051974;28;20021;-51
2021/10/19 07:36:29;;;;;;;22.85;9.48;;;;;;;;;;5052381;28;20025;-51
2021/10/19 07:38:55;;;;;;;20.83;9.35;;;;;;;;;;5051468;28;20094;-51
2021/10/19 07:41:21;;;;;;;21.75;8.15;;;;;;;;;;5052718;28;20451;-51
2021/10/19 07:43:46;;;;;;;19.35;8.05;;;;;;;;;;5051852;28;20033;-52
2021/10/19 07:46:12;;;;;;;20.55;9.27;;;;;;;;;;5052535;28;20032;-51
2021/10/19 07:48:38;;;;;;;23.95;9.77;;;;;;;;;;5052802;28;20406;-52
2021/10/19 07:51:04;;;;;;;20.80;9.32;;;;;;;;;;5051951;28;20451;-51
2021/10/19 07:53:30;;;;;;;19.58;9.50;;;;;;;;;;5052051;28;20037;-51
2021/10/19 07:55:58;;;;;;;17.08;8.48;;;;;;;;;;5052615;28;20041;-51
2021/10/19 07:58:24;;;;;;;24.27;9.50;;;;;;;;;;5052766;28;20036;-51
2021/10/19 08:00:50;;;;;;;23.67;8.90;;;;;;;;;;5052489;28;20029;-51
2021/10/19 08:03:16;;;;;;;22.10;10.13;;;;;;;;;;5052345;28;20038;-52
2021/10/19 08:05:42;;;;;;;19.08;8.55;;;;;;;;;;5051204;28;20350;-51
2021/10/19 08:08:16;;;;;;;18.40;8.55;;;;;;;;;;5052758;28;20035;-51
2021/10/19 08:10:43;;;;;;;23.88;9.07;;;;;;;;;;5052461;28;20454;-52
2021/10/19 08:13:09;;;;;;;23.48;8.25;;;;;;;;;;5052537;28;20357;-51
2021/10/19 08:15:36;;;;;;;17.75;7.68;;;;;;;;;;5051645;28;20100;-51
2021/10/19 08:18:03;;;;;;;22.05;8.75;;;;;;;;;;5052647;28;20029;-51
2021/10/19 08:20:30;;;;;;;24.40;9.57;;;;;;;;;;5052068;28;20354;-52
2021/10/19 08:22:56;;;;;;;19.58;9.18;;;;;;;;;;5052601;28;20033;-51
2021/10/19 08:25:22;;;;;;;20.08;8.20;;;;;;;;;;5051678;28;20028;-51
2021/10/19 08:27:48;;;;;;;21.90;9.38;;;;;;;;;;5052226;28;20024;-51
2021/10/19 08:30:16;;;;;;;23.75;8.45;;;;;;;;;;5052299;28;20124;-51
2021/10/19 08:32:42;;;;;;;18.38;8.85;;;;;;;;;;5052322;28;20021;-51
2021/10/19 08:35:09;;;;;;;17.08;7.93;;;;;;;;;;5051380;28;20082;-52
2021/10/19 08:37:35;;;;;;;19.45;7.97;;;;;;;;;;5054543;28;20439;-51
2021/10/19 08:40:02;;;;;;;20.30;9.20;;;;;;;;;;5054754;28;20032;-51
2021/10/19 08:42:28;;;;;;;16.90;7.85;;;;;;;;;;5055720;28;20040;-51
2021/10/19 08:44:54;;;;;;;17.13;8.25;;;;;;;;;;5055196;28;20021;-51
2021/10/19 08:47:20;;;;;;;19.85;8.20;;;;;;;;;;5055845;28;20457;-51
2021/10/19 08:49:46;;;;;;;16.23;7.95;;;;;;;;;;5055863;28;20044;-51
2021/10/19 08:52:12;;;;;;;15.23;7.50;;;;;;;;;;5055289;28;20021;-52
2021/10/19 08:54:39;;;;;;;14.48;7.70;;;;;;;;;;5054540;28;20355;-52
2021/10/19 08:57:15;;;;;;;14.85;7.88;;;;;;;;;;5055730;28;20332;-51
2021/10/19 08:59:42;;;;;;;18.88;8.73;;;;;;;;;;5055529;28;20058;-51
2021/10/19 09:02:08;;;;;;;19.67;8.48;;;;;;;;;;5055567;28;20048;-51
2021/10/19 09:04:34;;;;;;;16.58;6.95;;;;;;;;;;5055075;28;20398;-52
2021/10/19 09:07:00;;;;;;;20.50;9.43;;;;;;;;;;5055129;28;20028;-51
2021/10/19 09:09:27;;;;;;;20.15;8.98;;;;;;;;;;5055414;28;20451;-51
2021/10/19 09:11:54;;;;;;;18.27;8.15;;;;;;;;;;5055395;28;20389;-51
2021/10/19 09:14:21;;;;;;;20.42;8.77;;;;;;;;;;5054990;28;20313;-52
2021/10/19 09:16:49;;;;;;;16.77;8.43;;;;;;;;;;5055228;28;20028;-51
2021/10/19 09:19:16;;;;;;;14.43;7.40;;;;;;;;;;5055464;28;20070;-52
2021/10/19 09:21:49;;;;;;;16.73;8.43;;;;;;;;;;5054322;28;20363;-51
2021/10/19 09:24:34;;;;;;;21.10;9.07;;;;;;;;;;5054839;28;20451;-52
2021/10/19 09:27:00;;;;;;;15.70;7.82;;;;;;;;;;5054638;28;20472;-51
2021/10/19 09:29:27;;;;;;;13.75;7.18;;;;;;;;;;5055074;28;20021;-51
2021/10/19 09:31:54;;;;;;;17.13;7.57;;;;;;;;;;5055126;28;20056;-51
2021/10/19 09:34:20;;;;;;;13.63;6.97;;;;;;;;;;5054282;28;20077;-52
2021/10/19 09:36:48;;;;;;;18.98;8.20;;;;;;;;;;5054553;28;20098;-51
2021/10/19 09:39:14;;;;;;;16.83;7.45;;;;;;;;;;5054046;28;20029;-52
2021/10/19 09:41:41;;;;;;;14.77;7.40;;;;;;;;;;5054684;28;20041;-51
2021/10/19 09:44:11;;;;;;;17.63;8.95;;;;;;;;;;5054022;28;20050;-51
2021/10/19 09:46:37;;;;;;;16.40;7.80;;;;;;;;;;5054671;28;20524;-51
2021/10/19 09:49:03;;;;;;;16.10;8.05;;;;;;;;;;5054347;28;20029;-51
2021/10/19 09:51:30;;;;;;;11.70;6.93;;;;;;;;;;5054558;28;20029;-51
2021/10/19 09:53:56;;;;;;;16.98;7.03;;;;;;;;;;5053827;28;20111;-51
2021/10/19 09:56:22;;;;;;;16.77;8.00;;;;;;;;;;5054256;28;20049;-51
2021/10/19 09:58:48;;;;;;;15.60;7.57;;;;;;;;;;5054866;28;20020;-51
2021/10/19 10:01:15;;;;;;;17.20;7.40;;;;;;;;;;5054585;28;20033;-51
2021/10/19 10:03:41;;;;;;;16.17;6.80;;;;;;;;;;5053613;28;20032;-51
2021/10/19 10:06:08;;;;;;;14.27;6.03;;;;;;;;;;5054242;28;20025;-51
2021/10/19 10:08:35;;;;;;;13.07;7.10;;;;;;;;;;5054131;28;20029;-51
2021/10/19 10:11:01;;;;;;;15.70;7.68;;;;;;;;;;5054276;28;20020;-52
2021/10/19 10:13:27;;;;;;;11.40;5.80;;;;;;;;;;5053433;28;20029;-51
2021/10/19 10:15:53;;;;;;;16.50;6.43;;;;;;;;;;5053902;28;20105;-51
2021/10/19 10:18:31;;;;;;;13.90;6.38;;;;;;;;;;5053621;28;20036;-52
2021/10/19 10:20:57;;;;;;;20.60;7.50;;;;;;;;;;5053878;28;20082;-51
2021/10/19 10:23:24;;;;;;;15.32;7.40;;;;;;;;;;5053972;28;20078;-51
2021/10/19 10:25:54;;;;;;;16.17;6.93;;;;;;;;;;5053297;28;20146;-51
2021/10/19 10:28:30;;;;;;;10.05;6.03;;;;;;;;;;5054014;28;20021;-51
2021/10/19 10:30:58;;;;;;;13.30;6.38;;;;;;;;;;5053458;28;20056;-51
2021/10/19 10:33:40;;;;;;;16.95;6.15;;;;;;;;;;5053478;28;20470;-51
2021/10/19 10:36:10;;;;;;;13.13;5.95;;;;;;;;;;5054110;28;20044;-51
2021/10/19 10:38:37;;;;;;;14.77;6.40;;;;;;;;;;5052562;28;20029;-51
2021/10/19 10:41:14;;;;;;;11.77;6.15;;;;;;;;;;5053386;28;20463;-51
2021/10/19 10:43:40;;;;;;;12.88;5.95;;;;;;;;;;5052512;28;20059;-51
2021/10/19 10:46:20;;;;;;;15.18;6.03;;;;;;;;;;5053876;28;20167;-51
2021/10/19 10:48:46;;;;;;;9.85;5.43;;;;;;;;;;5053742;28;20082;-51
2021/10/19 10:51:13;;;;;;;11.10;5.07;;;;;;;;;;5053174;28;20374;-52
2021/10/19 10:53:43;;;;;;;11.10;6.20;;;;;;;;;;5052676;28;20352;-51
2021/10/19 10:56:10;;;;;;;10.45;5.43;;;;;;;;;;5053120;28;20469;-52
2021/10/19 10:58:37;;;;;;;11.95;5.88;;;;;;;;;;5053351;28;20029;-51
2021/10/19 11:01:14;;;;;;;17.10;5.90;;;;;;;;;;5052656;28;20458;-52
2021/10/19 11:03:40;;;;;;;13.13;5.18;;;;;;;;;;5052120;28;20032;-51
2021/10/19 11:06:06;;;;;;;9.15;5.32;;;;;;;;;;5053515;28;20036;-51
2021/10/19 11:08:33;;;;;;;13.95;6.60;;;;;;;;;;5052925;28;20151;-51
2021/10/19 11:11:13;;;;;;;12.65;6.50;;;;;;;;;;5053113;28;20471;-51
2021/10/19 11:13:54;;;;;;;10.05;5.13;;;;;;;;;;5052170;28;20037;-52
2021/10/19 11:16:38;;;;;;;15.43;5.70;;;;;;;;;;5052937;28;20482;-52
2021/10/19 11:19:05;;;;;;;11.25;5.10;;;;;;;;;;5052690;28;20052;-51
2021/10/19 11:21:32;;;;;;;11.18;4.82;;;;;;;;;;5052837;28;20079;-51
2021/10/19 11:23:59;;;;;;;8.63;4.90;;;;;;;;;;5052276;28;20021;-52
2021/10/19 11:26:25;;;;;;;11.13;5.53;;;;;;;;;;5052864;28;20104;-51
2021/10/19 11:28:54;;;;;;;9.35;5.10;;;;;;;;;;5052801;28;20029;-52
2021/10/19 11:31:20;;;;;;;14.98;6.30;;;;;;;;;;5052723;28;20029;-51
2021/10/19 11:33:46;;;;;;;9.90;4.32;;;;;;;;;;5052077;28;20036;-52
2021/10/19 11:36:13;;;;;;;9.32;6.00;;;;;;;;;;5053151;28;20196;-51
2021/10/19 11:38:42;;;;;;;12.38;4.13;;;;;;;;;;5051060;28;20036;-51
2021/10/19 11:41:13;;;;;;;8.80;4.38;;;;;;;;;;5053053;28;20078;-51
2021/10/19 11:43:40;;;;;;;9.45;3.78;;;;;;;;;;5052127;28;20025;-52
2021/10/19 11:46:07;;;;;;;6.70;3.30;;;;;;;;;;5053408;28;20351;-51
2021/10/19 11:48:33;;;;;;;8.35;3.95;;;;;;;;;;5052648;28;20116;-51
2021/10/19 11:51:01;;;;;;;8.13;3.55;;;;;;;;;;5052403;28;20048;-51
2021/10/19 11:53:28;;;;;;;5.85;3.22;;;;;;;;;;5052140;28;20078;-51
2021/10/19 11:55:55;;;;;;;6.68;3.58;;;;;;;;;;5052923;28;20048;-51
2021/10/19 11:58:23;;;;;;;5.53;3.22;;;;;;;;;;5052677;28;20048;-51
2021/10/19 12:00:51;;;;;;;6.57;3.08;;;;;;;;;;5052382;28;20029;-51
2021/10/19 12:03:17;;;;;;;6.18;2.60;;;;;;;;;;5052416;28;20063;-52
2021/10/19 12:05:43;;;;;;;6.25;2.88;;;;;;;;;;5051694;28;20025;-52
2021/10/19 12:08:10;;;;;;;4.93;2.60;;;;;;;;;;5052281;28;20442;-52
2021/10/19 12:10:36;;;;;;;3.50;2.53;;;;;;;;;;5053511;28;20021;-52
2021/10/19 12:13:12;;;;;;;5.50;2.65;;;;;;;;;;5056491;28;20021;-52
2021/10/19 12:15:41;;;;;;;8.10;3.05;;;;;;;;;;5055767;28;20359;-51
2021/10/19 12:18:08;;;;;;;5.80;3.63;;;;;;;;;;5056027;28;20036;-51
2021/10/19 12:20:35;;;;;;;6.15;3.30;;;;;;;;;;5056491;28;20425;-52
2021/10/19 12:23:09;;;;;;;6.22;2.65;;;;;;;;;;5056303;28;20069;-51
2021/10/19 12:25:36;;;;;;;7.78;3.25;;;;;;;;;;5055581;28;20112;-51
2021/10/19 12:28:02;;;;;;;7.30;3.35;;;;;;;;;;5056140;28;20033;-52
2021/10/19 12:30:35;;;;;;;5.65;2.72;;;;;;;;;;5055737;28;20466;-52
2021/10/19 12:33:01;;;;;;;7.60;2.88;;;;;;;;;;5055963;28;20056;-52
2021/10/19 12:35:27;;;;;;;5.25;2.78;;;;;;;;;;5055586;28;20017;-51
2021/10/19 12:37:54;;;;;;;7.15;2.78;;;;;;;;;;5055571;28;20095;-52
2021/10/19 12:40:21;;;;;;;4.55;2.78;;;;;;;;;;5054208;28;20147;-52
2021/10/19 12:42:48;;;;;;;6.05;2.40;;;;;;;;;;5055760;28;20043;-51
2021/10/19 12:45:14;;;;;;;3.45;2.80;;;;;;;;;;5055283;28;20025;-51
2021/10/19 12:47:40;;;;;;;5.65;3.35;;;;;;;;;;5055667;28;20089;-52
2021/10/19 12:50:07;;;;;;;5.40;3.08;;;;;;;;;;5055924;28;20351;-51
2021/10/19 12:52:33;;;;;;;6.05;3.25;;;;;;;;;;5055777;28;20036;-51
2021/10/19 12:54:59;;;;;;;8.55;3.33;;;;;;;;;;5054726;28;20348;-51
2021/10/19 12:57:26;;;;;;;6.47;3.25;;;;;;;;;;5055458;28;20021;-51
2021/10/19 12:59:52;;;;;;;6.82;3.10;;;;;;;;;;5055758;28;20028;-51
2021/10/19 13:02:25;;;;;;;7.38;3.95;;;;;;;;;;5055908;28;20462;-51
2021/10/19 13:04:50;;;;;;;6.78;3.40;;;;;;;;;;5054837;28;20454;-52
2021/10/19 13:07:16;;;;;;;11.27;4.25;;;;;;;;;;5056001;28;20052;-51
2021/10/19 13:09:42;;;;;;;6.82;4.00;;;;;;;;;;5055461;28;20350;-51
2021/10/19 13:12:08;;;;;;;8.60;3.88;;;;;;;;;;5054718;28;20060;-52
2021/10/19 13:14:35;;;;;;;9.18;3.40;;;;;;;;;;5054658;28;20052;-51
2021/10/19 13:17:00;;;;;;;7.75;4.07;;;;;;;;;;5055319;28;20061;-51
2021/10/19 13:19:27;;;;;;;7.22;3.35;;;;;;;;;;5055402;28;20064;-52
2021/10/19 13:21:53;;;;;;;13.27;3.63;;;;;;;;;;5054936;28;20067;-51
2021/10/19 13:24:18;;;;;;;8.60;4.10;;;;;;;;;;5053708;28;20029;-51
2021/10/19 13:26:45;;;;;;;8.27;3.95;;;;;;;;;;5055128;28;20130;-51
2021/10/19 13:29:11;;;;;;;7.82;4.18;;;;;;;;;;5055226;28;20048;-51
2021/10/19 13:31:39;;;;;;;13.38;4.30;;;;;;;;;;5054693;28;20044;-51
2021/10/19 13:34:06;;;;;;;11.57;5.32;;;;;;;;;;5054386;28;20033;-51
2021/10/19 13:36:32;;;;;;;7.85;4.10;;;;;;;;;;5055160;28;20032;-52
2021/10/19 13:38:58;;;;;;;8.98;4.38;;;;;;;;;;5052908;28;20029;-51
2021/10/19 13:41:24;;;;;;;10.05;3.95;;;;;;;;;;5054983;28;20040;-51
2021/10/19 13:43:50;;;;;;;8.82;4.97;;;;;;;;;;5054171;28;20108;-51
2021/10/19 13:46:16;;;;;;;9.63;5.32;;;;;;;;;;5055033;28;20032;-51
2021/10/19 13:48:42;;;;;;;13.05;6.10;;;;;;;;;;5054860;28;20028;-51
2021/10/19 13:51:08;;;;;;;8.63;5.07;;;;;;;;;;5054071;28;20037;-52
2021/10/19 13:53:36;;;;;;;7.63;4.18;;;;;;;;;;5054151;28;20013;-51
2021/10/19 13:56:02;;;;;;;8.48;5.20;;;;;;;;;;5054522;28;20033;-51
2021/10/19 13:58:29;;;;;;;9.10;4.68;;;;;;;;;;5054540;28;20025;-51
2021/10/19 14:00:55;;;;;;;8.85;5.13;;;;;;;;;;5054606;28;20036;-51
2021/10/19 14:03:21;;;;;;;12.07;5.25;;;;;;;;;;5054043;28;20029;-51
2021/10/19 14:05:47;;;;;;;6.65;4.43;;;;;;;;;;5053585;28;20071;-51
2021/10/19 14:08:13;;;;;;;8.00;4.07;;;;;;;;;;5054461;28;20075;-52
2021/10/19 14:10:40;;;;;;;11.95;4.72;;;;;;;;;;5054024;28;20462;-51
2021/10/19 14:13:06;;;;;;;9.85;4.95;;;;;;;;;;5054131;28;20036;-51
2021/10/19 14:15:32;;;;;;;10.48;5.78;;;;;;;;;;5053414;28;20040;-51
2021/10/19 14:17:58;;;;;;;7.28;4.47;;;;;;;;;;5054280;28;20035;-52
2021/10/19 14:20:24;;;;;;;7.57;4.35;;;;;;;;;;5053320;28;20013;-51
2021/10/19 14:22:50;;;;;;;15.65;5.72;;;;;;;;;;5054041;28;20091;-51
2021/10/19 14:25:17;;;;;;;12.73;4.80;;;;;;;;;;5053138;28;20017;-51
2021/10/19 14:27:43;;;;;;;7.60;4.38;;;;;;;;;;5053799;28;20025;-51
2021/10/19 14:30:09;;;;;;;15.48;6.20;;;;;;;;;;5053824;28;20032;-52
2021/10/19 14:32:35;;;;;;;8.55;5.45;;;;;;;;;;5053854;28;20504;-51